Terminal Aerodrome Forecast
Issued by NWS Wilmington, OH

Home | Current Version | Previous Version | Text Only | Print | Product List | Glossary On
Versions: 1 2 3 4 5 6 7 8 9 10 11 12 13 14 15 16 17
000
FTUS41 KILN 021700
TAFCMH
TAF
KCMH 021739Z 0218/0318 VRB03KT P6SM SCT200
     FM022100 VRB04KT P6SM FEW020 SCT120 BKN200
     FM030100 12005KT P6SM OVC120
      TEMPO 0313/0315 -FZRA OVC060
     FM031500 14010KT 5SM -FZRA BR OVC030
      TEMPO 0316/0318 2SM -FZRA OVC015=

USA.gov is the U.S. government's official web portal to all federal, state and local government web resources and services.